createdAt,value
2022-12-13T00:00:56.868Z,59.57
2022-12-13T00:03:23.326Z,67.97
2022-12-13T00:05:49.782Z,58.50
2022-12-13T00:08:16.764Z,53.83
2022-12-13T00:10:43.326Z,58.77
2022-12-13T00:13:09.775Z,55.33
2022-12-13T00:15:36.219Z,58.63
2022-12-13T00:18:02.736Z,61.30
2022-12-13T00:20:29.308Z,64.22
2022-12-13T00:22:56.057Z,57.97
2022-12-13T00:25:22.616Z,56.27
2022-12-13T00:27:49.075Z,55.40
2022-12-13T00:30:15.606Z,51.03
2022-12-13T00:32:42.153Z,58.53
2022-12-13T00:35:08.736Z,57.07
2022-12-13T00:37:35.228Z,56.23
2022-12-13T00:40:01.682Z,57.00
2022-12-13T00:42:28.169Z,57.85
2022-12-13T00:44:54.610Z,52.53
2022-12-13T00:47:22.235Z,59.88
2022-12-13T00:49:48.873Z,56.97
2022-12-13T00:52:15.268Z,61.20
2022-12-13T00:54:41.774Z,59.53
2022-12-13T00:57:08.245Z,61.30
2022-12-13T00:59:34.760Z,56.28
2022-12-13T01:02:01.280Z,59.17
2022-12-13T01:04:27.826Z,58.27
2022-12-13T01:06:55.102Z,56.93
2022-12-13T01:09:27.064Z,53.30
2022-12-13T01:11:58.279Z,54.10
2022-12-13T01:14:25.666Z,64.90
2022-12-13T01:16:55.729Z,69.90
2022-12-13T01:19:26.584Z,52.60
2022-12-13T01:21:58.571Z,70.13
2022-12-13T01:24:27.349Z,59.50
2022-12-13T01:26:57.131Z,68.53
2022-12-13T01:29:25.988Z,58.45
2022-12-13T01:31:53.804Z,66.90
2022-12-13T01:34:26.583Z,70.67
2022-12-13T01:36:58.341Z,70.25
2022-12-13T01:39:27.024Z,61.50
2022-12-13T01:41:59.192Z,63.33
2022-12-13T01:44:56.401Z,56.42
2022-12-13T01:47:31.819Z,55.83
2022-12-13T01:50:02.131Z,49.03
2022-12-13T01:52:32.259Z,52.75
2022-12-13T01:55:03.581Z,61.58
2022-12-13T01:57:32.925Z,48.27
2022-12-13T01:59:59.620Z,57.30
2022-12-13T02:02:26.203Z,54.63
2022-12-13T02:05:06.721Z,48.93
2022-12-13T02:07:36.545Z,53.20
2022-12-13T02:10:05.999Z,59.53
2022-12-13T02:12:35.449Z,53.50
2022-12-13T02:15:11.545Z,59.22
2022-12-13T02:18:04.257Z,52.47
2022-12-13T02:20:56.206Z,52.47
2022-12-13T02:23:48.194Z,59.33
2022-12-13T02:26:52.122Z,65.03
2022-12-13T02:29:42.416Z,59.97
2022-12-13T02:32:43.797Z,64.65
2022-12-13T02:35:18.581Z,54.67
2022-12-13T02:38:08.724Z,73.65
2022-12-13T02:40:47.734Z,53.77
2022-12-13T02:43:25.360Z,53.28
2022-12-13T02:48:32.863Z,47.00
2022-12-13T02:51:02.901Z,46.58
2022-12-13T02:53:30.151Z,60.80
2022-12-13T02:56:00.597Z,53.40
2022-12-13T02:58:30.890Z,60.40
2022-12-13T03:01:29.049Z,56.80
2022-12-13T03:04:01.715Z,54.35
2022-12-13T03:06:56.292Z,55.10
2022-12-13T03:09:56.799Z,59.87
2022-12-13T03:12:58.552Z,52.77
2022-12-13T03:15:43.623Z,68.87
2022-12-13T03:18:15.875Z,60.05
2022-12-13T03:20:49.796Z,60.33
2022-12-13T03:23:18.579Z,53.93
2022-12-13T03:25:47.361Z,61.03
2022-12-13T03:28:13.895Z,71.93
2022-12-13T03:30:40.293Z,57.63
2022-12-13T03:33:06.739Z,63.70
2022-12-13T03:35:34.920Z,59.30
2022-12-13T03:38:12.817Z,65.63
2022-12-13T03:40:53.177Z,63.07
2022-12-13T03:43:21.805Z,72.30
2022-12-13T03:45:50.190Z,54.37
2022-12-13T03:48:21.984Z,57.30
2022-12-13T03:50:51.628Z,68.03
2022-12-13T03:53:22.166Z,55.87
2022-12-13T03:55:50.326Z,58.33
2022-12-13T03:58:17.028Z,56.33
2022-12-13T04:00:43.708Z,50.27
2022-12-13T04:03:10.548Z,58.03
2022-12-13T04:05:37.301Z,53.33
2022-12-13T04:08:04.233Z,70.93
2022-12-13T04:10:48.592Z,61.43
2022-12-13T04:13:33.239Z,77.83
2022-12-13T04:16:00.883Z,57.67
2022-12-13T04:18:27.575Z,64.10
2022-12-13T04:20:54.105Z,65.70
2022-12-13T04:23:20.516Z,63.47
2022-12-13T04:25:47.110Z,56.03
2022-12-13T04:28:22.279Z,57.57
2022-12-13T04:30:53.362Z,61.07
2022-12-13T04:33:21.866Z,51.03
2022-12-13T04:35:49.115Z,63.10
2022-12-13T04:38:16.037Z,51.20
2022-12-13T04:40:42.551Z,54.30
2022-12-13T04:43:09.293Z,58.13
2022-12-13T04:45:35.892Z,56.00
2022-12-13T04:48:02.444Z,58.95
2022-12-13T04:50:28.975Z,58.33
2022-12-13T04:52:55.614Z,53.97
2022-12-13T04:55:22.052Z,55.05
2022-12-13T04:57:48.488Z,57.90
2022-12-13T05:00:15.392Z,52.40
2022-12-13T05:02:42.144Z,58.10
2022-12-13T05:05:10.303Z,47.38
2022-12-13T05:07:42.330Z,56.63
2022-12-13T05:10:13.993Z,47.38
2022-12-13T05:13:00.343Z,64.35
2022-12-13T05:15:27.490Z,63.40
2022-12-13T05:17:53.939Z,49.27
2022-12-13T05:20:20.459Z,45.10
2022-12-13T05:22:47.146Z,61.37
2022-12-13T05:25:14.534Z,59.88
2022-12-13T05:27:46.702Z,64.53
2022-12-13T05:30:17.721Z,56.45
2022-12-13T05:32:44.996Z,52.75
2022-12-13T05:35:14.137Z,53.85
2022-12-13T05:37:48.419Z,58.43
2022-12-13T05:40:27.414Z,51.77
2022-12-13T05:43:01.287Z,45.87
2022-12-13T05:45:32.838Z,51.70
2022-12-13T05:47:59.748Z,52.80
2022-12-13T05:50:26.217Z,52.38
2022-12-13T05:52:53.102Z,49.90
2022-12-13T05:55:20.051Z,52.55
2022-12-13T05:57:50.703Z,46.13
2022-12-13T06:00:29.266Z,50.10
2022-12-13T06:02:57.927Z,45.20
2022-12-13T06:05:29.467Z,46.22
2022-12-13T06:07:57.739Z,40.35
2022-12-13T06:10:34.273Z,46.90
2022-12-13T06:13:20.872Z,53.88
2022-12-13T06:15:49.989Z,49.67
2022-12-13T06:18:16.415Z,41.90
2022-12-13T06:20:42.941Z,46.63
2022-12-13T06:23:09.465Z,40.03
2022-12-13T06:25:36.872Z,46.45
2022-12-13T06:28:03.677Z,49.53
2022-12-13T06:30:30.695Z,47.58
2022-12-13T06:32:57.439Z,45.47
2022-12-13T06:35:28.061Z,48.35
2022-12-13T06:38:01.449Z,54.05
2022-12-13T06:40:33.599Z,53.78
2022-12-13T06:43:00.722Z,55.78
2022-12-13T06:45:27.565Z,46.67
2022-12-13T06:47:53.997Z,47.70
2022-12-13T06:50:20.511Z,45.05
2022-12-13T06:52:47.233Z,60.40
2022-12-13T06:55:14.481Z,47.78
2022-12-13T06:57:41.527Z,46.30
2022-12-13T07:00:10.081Z,54.03
2022-12-13T07:02:38.123Z,46.83
2022-12-13T07:05:05.279Z,51.25
2022-12-13T07:07:32.032Z,56.03
2022-12-13T07:09:58.474Z,48.17
2022-12-13T07:12:24.983Z,58.30
2022-12-13T07:14:52.216Z,54.20
2022-12-13T07:17:32.749Z,42.87
2022-12-13T07:20:08.115Z,51.03
2022-12-13T07:22:38.764Z,40.90
2022-12-13T07:25:08.722Z,64.35
2022-12-13T07:28:01.671Z,46.53
2022-12-13T07:30:33.492Z,51.92
2022-12-13T07:33:04.302Z,54.83
2022-12-13T07:35:32.317Z,46.03
2022-12-13T07:38:06.562Z,47.73
2022-12-13T07:40:37.322Z,48.38
2022-12-13T07:43:04.766Z,51.95
2022-12-13T07:45:31.923Z,43.25
2022-12-13T07:48:03.155Z,50.80
2022-12-13T07:50:29.659Z,54.55
2022-12-13T07:53:06.571Z,48.25
2022-12-13T07:55:34.344Z,42.78
2022-12-13T07:58:09.123Z,44.97
2022-12-13T08:00:37.589Z,40.60
2022-12-13T08:03:05.445Z,41.72
2022-12-13T08:05:38.337Z,41.17
2022-12-13T08:08:08.639Z,43.42
2022-12-13T08:10:36.011Z,41.60
2022-12-13T08:13:03.174Z,47.10
2022-12-13T08:15:30.088Z,41.50
2022-12-13T08:17:57.179Z,46.72
2022-12-13T08:20:23.795Z,55.08
2022-12-13T08:23:01.728Z,44.00
2022-12-13T08:25:30.417Z,46.60
2022-12-13T08:28:02.079Z,48.42
2022-12-13T08:30:31.252Z,46.67
2022-12-13T08:33:05.130Z,47.08
2022-12-13T08:35:34.609Z,56.85
2022-12-13T08:38:02.361Z,54.25
2022-12-13T08:40:29.092Z,49.42
2022-12-13T08:42:56.409Z,50.22
2022-12-13T08:45:27.062Z,49.70
2022-12-13T08:47:56.803Z,46.30
2022-12-13T08:50:23.233Z,43.47
2022-12-13T08:52:51.996Z,50.03
2022-12-13T08:55:22.465Z,54.38
2022-12-13T08:57:58.529Z,49.47
2022-12-13T09:00:27.997Z,47.92
2022-12-13T09:02:57.391Z,45.35
2022-12-13T09:05:33.637Z,57.60
2022-12-13T09:08:04.057Z,43.42
2022-12-13T09:10:38.634Z,46.47
2022-12-13T09:13:11.858Z,51.90
2022-12-13T09:15:46.100Z,39.03
2022-12-13T09:18:15.274Z,75.25
2022-12-13T09:20:50.418Z,44.13
2022-12-13T09:23:23.144Z,61.15
2022-12-13T09:26:05.579Z,45.08
2022-12-13T09:28:35.130Z,37.33
2022-12-13T09:31:15.936Z,42.88
2022-12-13T09:33:43.466Z,53.15
2022-12-13T09:36:16.489Z,45.78
2022-12-13T09:38:43.566Z,44.47
2022-12-13T09:41:20.151Z,45.75
2022-12-13T09:43:49.928Z,40.38
2022-12-13T09:46:25.776Z,40.58
2022-12-13T09:51:28.335Z,32.72
2022-12-13T09:53:58.128Z,31.52
2022-12-13T09:56:24.705Z,36.20
2022-12-13T09:58:53.843Z,37.47
2022-12-13T10:01:22.527Z,37.38
2022-12-13T10:03:52.775Z,35.58
2022-12-13T10:06:24.620Z,44.72
2022-12-13T10:08:57.192Z,35.50
2022-12-13T10:11:31.448Z,45.78
2022-12-13T10:14:10.932Z,41.65
2022-12-13T10:16:37.558Z,30.83
2022-12-13T10:19:29.214Z,34.50
2022-12-13T10:22:01.265Z,36.20
2022-12-13T10:24:47.194Z,29.15
2022-12-13T10:27:17.474Z,35.33
2022-12-13T10:30:01.904Z,35.15
2022-12-13T10:32:30.136Z,38.28
2022-12-13T10:35:38.304Z,38.17
2022-12-13T10:38:07.887Z,37.03
2022-12-13T10:40:37.775Z,33.90
2022-12-13T10:43:22.580Z,33.45
2022-12-13T10:45:55.618Z,34.43
2022-12-13T10:48:25.142Z,34.78
2022-12-13T10:50:57.930Z,31.08
2022-12-13T10:53:29.956Z,30.48
2022-12-13T10:56:02.440Z,33.33
2022-12-13T10:58:38.900Z,29.88
2022-12-13T11:01:19.953Z,38.33
2022-12-13T11:04:02.198Z,32.72
2022-12-13T11:06:43.495Z,30.88
2022-12-13T11:09:28.151Z,32.30
2022-12-13T11:11:57.987Z,29.45
2022-12-13T11:14:35.594Z,31.42
2022-12-13T11:17:15.479Z,29.10
2022-12-13T11:20:02.434Z,31.42
2022-12-13T11:22:32.608Z,28.70
2022-12-13T11:25:05.493Z,30.25
2022-12-13T11:27:49.725Z,25.63
2022-12-13T11:30:41.342Z,23.52
2022-12-13T11:33:32.894Z,26.45
2022-12-13T11:36:20.187Z,30.27
2022-12-13T11:39:12.559Z,25.75
2022-12-13T11:41:48.707Z,22.27
2022-12-13T11:44:41.833Z,24.27
2022-12-13T11:47:26.245Z,27.10
2022-12-13T11:49:53.336Z,20.70
2022-12-13T11:52:35.466Z,30.58
2022-12-13T11:55:28.196Z,27.17
2022-12-13T11:58:09.789Z,26.30
2022-12-13T12:00:41.857Z,28.15
2022-12-13T12:03:38.746Z,29.00
2022-12-13T12:06:23.024Z,32.90
2022-12-13T12:09:06.011Z,26.23
2022-12-13T12:11:39.463Z,28.75
2022-12-13T12:14:11.444Z,28.17
2022-12-13T12:16:54.279Z,21.00
2022-12-13T12:19:23.604Z,25.58
2022-12-13T12:22:16.243Z,25.27
2022-12-13T12:25:07.209Z,26.33
2022-12-13T12:27:59.474Z,24.27
2022-12-13T12:30:39.300Z,30.50
2022-12-13T12:33:34.858Z,26.50
2022-12-13T12:36:19.922Z,39.47
2022-12-13T12:39:04.218Z,35.53
2022-12-13T12:41:45.540Z,28.45
2022-12-13T12:44:33.551Z,30.10
2022-12-13T12:47:56.402Z,30.83
2022-12-13T12:50:33.273Z,29.45
2022-12-13T12:53:07.458Z,31.30
2022-12-13T12:56:01.891Z,31.48
2022-12-13T12:58:53.340Z,39.05
2022-12-13T13:01:48.980Z,29.25
2022-12-13T13:04:22.288Z,40.97
2022-12-13T13:07:01.906Z,35.03
2022-12-13T13:09:30.016Z,32.58
2022-12-13T13:11:57.974Z,31.88
2022-12-13T13:14:29.925Z,29.05
2022-12-13T13:16:58.320Z,30.67
2022-12-13T13:19:30.821Z,24.33
2022-12-13T13:22:01.430Z,27.00
2022-12-13T13:24:32.708Z,31.25
2022-12-13T13:27:11.182Z,33.75
2022-12-13T13:29:43.352Z,25.25
2022-12-13T13:32:29.212Z,28.55
2022-12-13T13:35:47.871Z,36.35
2022-12-13T13:38:17.537Z,35.58
2022-12-13T13:40:44.072Z,26.65
2022-12-13T13:43:10.476Z,33.80
2022-12-13T13:45:52.107Z,31.33
2022-12-13T13:48:36.419Z,30.40
2022-12-13T13:52:01.051Z,30.85
2022-12-13T13:54:37.464Z,32.88
2022-12-13T13:58:07.510Z,39.17
2022-12-13T14:00:21.838Z,41.38
2022-12-13T14:03:34.155Z,34.88
2022-12-13T14:06:16.024Z,41.80
2022-12-13T14:09:07.952Z,39.95
2022-12-13T14:11:45.421Z,35.05
2022-12-13T14:15:07.886Z,36.17
2022-12-13T14:18:21.559Z,31.20
2022-12-13T14:20:55.328Z,46.47
2022-12-13T14:23:35.717Z,36.08
2022-12-13T14:26:18.339Z,34.88
2022-12-13T14:28:57.600Z,45.78
2022-12-13T14:31:39.355Z,50.10
2022-12-13T14:34:07.858Z,47.20
2022-12-13T14:36:36.571Z,42.88
2022-12-13T14:39:24.662Z,40.50
2022-12-13T14:41:58.247Z,39.85
2022-12-13T14:44:28.089Z,40.40
2022-12-13T14:46:58.867Z,43.20
2022-12-13T14:49:28.023Z,38.92
2022-12-13T14:52:00.822Z,41.13
2022-12-13T14:54:43.622Z,47.45
2022-12-13T14:57:17.299Z,37.53
2022-12-13T14:59:50.775Z,40.10
2022-12-13T15:02:30.856Z,42.17
2022-12-13T15:05:04.626Z,49.35
2022-12-13T15:07:35.669Z,43.78
2022-12-13T15:10:24.427Z,54.92
2022-12-13T15:12:53.527Z,47.75
2022-12-13T15:15:28.998Z,50.10
2022-12-13T15:18:17.258Z,41.17
2022-12-13T15:20:49.768Z,39.45
2022-12-13T15:23:26.315Z,45.75
2022-12-13T15:26:07.246Z,39.25
2022-12-13T15:28:37.092Z,50.78
2022-12-13T15:31:05.871Z,43.60
2022-12-13T15:33:36.709Z,47.45
2022-12-13T15:36:19.454Z,47.13
2022-12-13T15:38:55.291Z,49.72
2022-12-13T15:41:27.150Z,43.70
2022-12-13T15:44:01.248Z,39.63
2022-12-13T15:46:31.537Z,48.13
2022-12-13T15:49:01.250Z,47.22
2022-12-13T15:51:30.586Z,53.85
2022-12-13T15:54:09.098Z,51.22
2022-12-13T15:56:57.889Z,49.45
2022-12-13T15:59:31.117Z,50.47
2022-12-13T16:01:58.827Z,51.78
2022-12-13T16:04:32.778Z,60.10
2022-12-13T16:07:01.193Z,53.17
2022-12-13T16:09:31.732Z,51.03
2022-12-13T16:12:04.586Z,59.08
2022-12-13T16:14:49.643Z,55.67
2022-12-13T16:17:24.672Z,56.42
2022-12-13T16:19:56.443Z,65.43
2022-12-13T16:22:24.031Z,53.30
2022-12-13T16:24:52.420Z,58.78
2022-12-13T16:27:21.195Z,66.57
2022-12-13T16:29:47.985Z,59.25
2022-12-13T16:32:15.513Z,65.70
2022-12-13T16:34:43.271Z,64.97
2022-12-13T16:37:26.510Z,68.13
2022-12-13T16:39:56.103Z,66.00
2022-12-13T16:42:25.810Z,63.30
2022-12-13T16:45:11.280Z,54.85
2022-12-13T16:47:46.389Z,63.20
2022-12-13T16:50:21.498Z,61.08
2022-12-13T16:52:48.937Z,60.85
2022-12-13T16:55:15.859Z,66.30
2022-12-13T16:57:45.822Z,72.85
2022-12-13T17:00:13.850Z,66.35
2022-12-13T17:02:41.147Z,63.85
2022-12-13T17:05:09.060Z,65.13
2022-12-13T17:07:36.116Z,67.95
2022-12-13T17:10:04.910Z,64.90
2022-12-13T17:12:32.670Z,77.15
2022-12-13T17:15:02.177Z,82.55
2022-12-13T17:17:29.837Z,74.07
2022-12-13T17:19:57.137Z,72.72
2022-12-13T17:22:24.238Z,73.70
2022-12-13T17:24:51.297Z,87.15
2022-12-13T17:27:18.446Z,80.75
2022-12-13T17:29:47.538Z,84.80
2022-12-13T17:32:14.187Z,85.03
2022-12-13T17:34:41.216Z,69.68
2022-12-13T17:37:10.586Z,83.55
2022-12-13T17:39:37.780Z,77.82
2022-12-13T17:42:11.771Z,75.57
2022-12-13T17:44:38.990Z,69.07
2022-12-13T17:47:05.888Z,76.32
2022-12-13T17:49:33.136Z,85.97
2022-12-13T17:52:04.139Z,85.82
2022-12-13T17:54:30.882Z,86.32
2022-12-13T17:57:01.768Z,72.85
2022-12-13T17:59:28.610Z,73.15
2022-12-13T18:01:55.514Z,66.20
2022-12-13T18:04:29.341Z,88.57
2022-12-13T18:06:58.437Z,70.75
2022-12-13T18:09:26.614Z,81.88
2022-12-13T18:11:54.640Z,74.93
2022-12-13T18:14:23.680Z,87.95
2022-12-13T18:16:50.766Z,79.07
2022-12-13T18:19:20.336Z,76.25
2022-12-13T18:21:48.263Z,76.05
2022-12-13T18:24:15.179Z,71.57
2022-12-13T18:26:43.305Z,91.30
2022-12-13T18:29:10.271Z,75.55
2022-12-13T18:31:38.284Z,81.78
2022-12-13T18:34:11.363Z,71.45
2022-12-13T18:36:39.439Z,65.63
2022-12-13T18:39:05.864Z,70.95
2022-12-13T18:41:32.581Z,74.82
2022-12-13T18:44:01.888Z,76.28
2022-12-13T18:46:30.562Z,83.13
2022-12-13T18:48:57.514Z,68.93
2022-12-13T18:51:24.531Z,79.75
2022-12-13T18:53:51.791Z,61.90
2022-12-13T18:56:19.490Z,80.43
2022-12-13T18:58:47.982Z,75.07
2022-12-13T19:01:16.104Z,75.22
2022-12-13T19:03:45.078Z,74.90
2022-12-13T19:06:17.631Z,72.50
2022-12-13T19:08:51.454Z,74.22
2022-12-13T19:11:18.653Z,73.22
2022-12-13T19:13:45.989Z,83.70
2022-12-13T19:16:15.132Z,72.47
2022-12-13T19:18:42.314Z,72.90
2022-12-13T19:21:11.552Z,65.50
2022-12-13T19:23:40.662Z,73.97
2022-12-13T19:26:09.672Z,64.95
2022-12-13T19:28:37.991Z,65.88
2022-12-13T19:31:06.535Z,60.45
2022-12-13T19:33:33.720Z,72.80
2022-12-13T19:36:01.248Z,123.82
2022-12-13T19:38:28.199Z,64.65
2022-12-13T19:40:55.261Z,72.28
2022-12-13T19:43:22.160Z,61.15
2022-12-13T19:45:49.121Z,59.15
2022-12-13T19:48:16.248Z,73.60
2022-12-13T19:50:44.204Z,74.47
2022-12-13T19:53:11.654Z,64.03
2022-12-13T19:55:43.438Z,68.65
2022-12-13T19:58:09.845Z,64.05
2022-12-13T20:00:36.377Z,69.25
2022-12-13T20:03:03.913Z,76.85
2022-12-13T20:05:30.373Z,57.58
2022-12-13T20:07:58.869Z,68.25
2022-12-13T20:10:26.250Z,75.75
2022-12-13T20:12:53.747Z,56.67
2022-12-13T20:15:20.237Z,63.13
2022-12-13T20:17:46.853Z,64.55
2022-12-13T20:20:13.291Z,61.60
2022-12-13T20:22:39.751Z,55.10
2022-12-13T20:25:07.023Z,60.30
2022-12-13T20:27:33.553Z,55.75
2022-12-13T20:30:00.083Z,61.90
2022-12-13T20:32:26.609Z,60.67
2022-12-13T20:34:55.111Z,62.65
2022-12-13T20:37:23.969Z,58.55
2022-12-13T20:39:50.781Z,66.65
2022-12-13T20:42:17.274Z,54.35
2022-12-13T20:44:43.747Z,66.93
2022-12-13T20:47:10.420Z,64.93
2022-12-13T20:49:36.934Z,70.72
2022-12-13T20:52:03.652Z,64.25
2022-12-13T20:54:30.205Z,69.53
2022-12-13T20:56:56.759Z,62.80
2022-12-13T20:59:23.189Z,56.83
2022-12-13T21:01:49.663Z,72.57
2022-12-13T21:04:16.320Z,56.95
2022-12-13T21:06:42.791Z,57.30
2022-12-13T21:09:10.673Z,54.77
2022-12-13T21:11:44.115Z,62.15
2022-12-13T21:14:20.443Z,51.90
2022-12-13T21:17:10.936Z,50.38
2022-12-13T21:19:40.666Z,53.10
2022-12-13T21:22:08.830Z,59.63
2022-12-13T21:24:35.514Z,71.73
2022-12-13T21:27:05.606Z,56.28
2022-12-13T21:29:33.708Z,59.00
2022-12-13T21:32:01.563Z,60.53
2022-12-13T21:34:30.241Z,51.70
2022-12-13T21:36:57.655Z,57.55
2022-12-13T21:39:29.942Z,59.08
2022-12-13T21:41:57.810Z,45.53
2022-12-13T21:44:24.669Z,52.20
2022-12-13T21:47:11.903Z,52.23
2022-12-13T21:49:39.492Z,60.80
2022-12-13T21:52:08.396Z,57.03
2022-12-13T21:54:40.920Z,102.80
2022-12-13T21:57:26.706Z,72.80
2022-12-13T21:59:53.994Z,59.42
2022-12-13T22:02:27.315Z,63.27
2022-12-13T22:04:55.900Z,50.90
2022-12-13T22:07:25.491Z,47.90
2022-12-13T22:09:53.596Z,45.87
2022-12-13T22:12:29.596Z,52.27
2022-12-13T22:14:56.461Z,52.15
2022-12-13T22:17:31.329Z,44.97
2022-12-13T22:20:10.891Z,51.60
2022-12-13T22:22:42.079Z,35.88
2022-12-13T22:25:10.370Z,48.80
2022-12-13T22:27:37.702Z,47.33
2022-12-13T22:30:05.281Z,37.70
2022-12-13T22:32:32.462Z,45.50
2022-12-13T22:35:03.381Z,55.53
2022-12-13T22:37:33.169Z,53.20
2022-12-13T22:40:00.799Z,41.17
2022-12-13T22:42:31.260Z,39.53
2022-12-13T22:45:02.139Z,49.97
2022-12-13T22:47:38.008Z,42.90
2022-12-13T22:50:06.670Z,45.67
2022-12-13T22:52:37.318Z,35.20
2022-12-13T22:55:04.079Z,41.13
2022-12-13T22:57:30.929Z,42.90
2022-12-13T22:59:57.733Z,49.63
2022-12-13T23:02:26.393Z,50.53
2022-12-13T23:04:53.527Z,40.70
2022-12-13T23:07:21.935Z,53.63
2022-12-13T23:09:49.825Z,45.53
2022-12-13T23:12:35.644Z,45.87
2022-12-13T23:15:04.672Z,36.63
2022-12-13T23:17:31.817Z,42.13
2022-12-13T23:19:59.319Z,46.90
2022-12-13T23:22:26.482Z,53.80
2022-12-13T23:24:56.860Z,49.83
2022-12-13T23:27:26.391Z,50.50
2022-12-13T23:29:53.337Z,38.27
2022-12-13T23:32:23.495Z,46.07
2022-12-13T23:34:51.634Z,45.00
2022-12-13T23:37:19.052Z,41.53
2022-12-13T23:39:47.526Z,36.47
2022-12-13T23:42:14.211Z,38.87
2022-12-13T23:44:43.353Z,39.87
2022-12-13T23:47:10.007Z,44.53
2022-12-13T23:49:36.637Z,39.00
2022-12-13T23:52:03.449Z,35.37
2022-12-13T23:54:29.986Z,38.33
2022-12-13T23:56:56.687Z,35.57
2022-12-13T23:59:25.823Z,35.03
